Time;durP1;ratioP1;P1;durP2;ratioP2;P2;SDS_P1;SDS_P2;PMS_P1;PMS_P2;Temp;Humidity;BMP_temperature;BMP_pressure;BME280_temperature;BME280_humidity;BME280_pressure;Samples;Min_cycle;Max_cycle;Signal;HPM_P1;HPM_P2
2023/06/05 00:01:18;;;;;;;4.30;2.93;;;14.20;99.70;;;;;;5040847;28;20464;-76
2023/06/05 00:03:45;;;;;;;2.57;2.37;;;14.20;99.90;;;;;;5050068;28;20449;-77
2023/06/05 00:06:11;;;;;;;2.80;2.60;;;14.10;99.90;;;;;;5046341;28;20547;-77
2023/06/05 00:08:38;;;;;;;3.17;2.60;;;14.10;99.90;;;;;;5048316;28;20461;-76
2023/06/05 00:11:05;;;;;;;4.47;3.20;;;14.10;99.90;;;;;;5038461;28;20515;-76
2023/06/05 00:13:33;;;;;;;2.60;2.40;;;14.10;99.90;;;;;;5051715;28;20922;-77
2023/06/05 00:16:02;;;;;;;4.10;2.50;;;14.00;99.90;;;;;;5053547;28;20457;-76
2023/06/05 00:18:29;;;;;;;2.80;2.60;;;14.00;99.90;;;;;;5053705;28;20456;-77
2023/06/05 00:20:56;;;;;;;2.83;2.50;;;14.00;99.90;;;;;;5052577;28;21161;-76
2023/06/05 00:23:22;;;;;;;5.67;2.80;;;13.90;99.90;;;;;;5053132;28;20899;-76
2023/06/05 00:25:49;;;;;;;2.80;2.50;;;13.90;99.90;;;;;;5052587;28;20539;-76
2023/06/05 00:28:15;;;;;;;4.20;2.83;;;13.90;99.90;;;;;;5052222;28;20456;-76
2023/06/05 00:30:43;;;;;;;3.27;3.00;;;13.90;99.90;;;;;;5053034;28;20456;-76
2023/06/05 00:33:10;;;;;;;3.13;2.93;;;13.90;99.90;;;;;;5053183;28;20467;-76
2023/06/05 00:35:37;;;;;;;4.03;2.50;;;13.80;99.90;;;;;;5051809;28;20450;-76
2023/06/05 00:38:03;;;;;;;3.10;2.80;;;13.80;99.90;;;;;;5061366;28;20454;-76
2023/06/05 00:40:30;;;;;;;3.30;2.77;;;13.70;99.90;;;;;;5056934;28;20513;-76
2023/06/05 00:42:56;;;;;;;6.37;3.00;;;13.70;99.90;;;;;;5055831;28;20975;-76
2023/06/05 00:45:23;;;;;;;2.83;2.63;;;13.70;99.90;;;;;;5053177;28;20492;-76
2023/06/05 00:47:51;;;;;;;3.20;2.90;;;13.60;99.90;;;;;;5052089;28;20945;-76
2023/06/05 00:50:21;;;;;;;2.77;2.57;;;13.60;99.90;;;;;;5048764;28;20454;-76
2023/06/05 00:52:48;;;;;;;8.83;3.00;;;13.60;99.90;;;;;;5053197;28;20704;-77
2023/06/05 00:55:15;;;;;;;4.43;3.10;;;13.60;99.90;;;;;;5048087;28;20460;-76
2023/06/05 00:57:44;;;;;;;4.33;2.80;;;13.50;99.90;;;;;;5047034;28;20459;-76
2023/06/05 01:00:12;;;;;;;5.67;2.93;;;13.50;99.90;;;;;;5052541;28;20911;-76
2023/06/05 01:02:39;;;;;;;3.00;2.80;;;13.60;99.90;;;;;;5057311;28;20475;-76
2023/06/05 01:05:08;;;;;;;5.73;2.63;;;13.50;99.90;;;;;;5054105;28;20579;-76
2023/06/05 01:07:37;;;;;;;4.03;2.80;;;13.50;99.90;;;;;;5052661;28;20590;-76
2023/06/05 01:10:08;;;;;;;3.43;3.10;;;13.60;99.90;;;;;;5060538;28;20509;-76
2023/06/05 01:12:42;;;;;;;3.40;2.70;;;13.50;99.90;;;;;;5052527;28;20567;-76
2023/06/05 01:15:09;;;;;;;3.20;2.90;;;13.50;99.90;;;;;;5053260;28;20444;-76
2023/06/05 01:17:37;;;;;;;5.57;3.07;;;13.40;99.90;;;;;;5053442;28;20457;-76
2023/06/05 01:20:07;;;;;;;6.80;2.73;;;13.40;99.90;;;;;;5051352;28;20526;-76
2023/06/05 01:22:37;;;;;;;3.50;3.00;;;13.30;99.90;;;;;;5057483;28;21052;-76
2023/06/05 01:25:06;;;;;;;3.03;2.63;;;13.30;99.90;;;;;;5051377;28;21066;-76
2023/06/05 01:27:43;;;;;;;3.13;2.83;;;13.30;99.90;;;;;;5052367;28;21024;-76
2023/06/05 01:30:15;;;;;;;3.13;2.60;;;13.30;99.90;;;;;;5051792;28;21007;-75
2023/06/05 01:32:47;;;;;;;3.47;3.00;;;13.30;99.90;;;;;;5047080;28;20548;-76
2023/06/05 01:35:16;;;;;;;4.73;3.30;;;13.30;99.90;;;;;;5050224;28;20445;-76
2023/06/05 01:37:48;;;;;;;5.47;2.90;;;13.20;99.90;;;;;;5057752;28;20456;-76
2023/06/05 01:40:17;;;;;;;4.93;2.80;;;13.20;99.90;;;;;;5043772;28;20464;-76
2023/06/05 01:42:45;;;;;;;3.43;3.13;;;13.10;99.90;;;;;;5048889;28;20481;-76
2023/06/05 01:45:12;;;;;;;4.13;2.90;;;13.10;99.90;;;;;;5049466;28;20489;-76
2023/06/05 01:47:40;;;;;;;3.30;2.90;;;13.10;99.90;;;;;;5048068;28;20514;-77
2023/06/05 01:50:08;;;;;;;33.27;3.40;;;13.00;99.90;;;;;;5048641;28;20445;-76
2023/06/05 01:52:35;;;;;;;2.83;2.63;;;13.00;99.90;;;;;;5051832;28;20468;-76
2023/06/05 01:55:02;;;;;;;3.63;2.53;;;13.00;99.90;;;;;;5051118;28;20511;-76
2023/06/05 01:57:31;;;;;;;2.70;2.50;;;13.00;99.90;;;;;;5051654;28;20460;-76
2023/06/05 01:59:57;;;;;;;2.77;2.57;;;12.90;99.90;;;;;;5051777;28;20522;-76
2023/06/05 02:02:24;;;;;;;6.20;2.73;;;12.90;99.90;;;;;;5049766;28;20530;-76
2023/06/05 02:04:53;;;;;;;7.60;2.60;;;12.90;99.90;;;;;;5043992;28;20485;-76
2023/06/05 02:07:21;;;;;;;3.70;2.97;;;12.90;99.90;;;;;;5041339;28;20465;-76
2023/06/05 02:09:47;;;;;;;8.37;2.60;;;12.90;99.90;;;;;;5040674;28;20477;-76
2023/06/05 02:12:15;;;;;;;3.10;2.80;;;12.80;99.90;;;;;;5048890;28;20504;-76
2023/06/05 02:14:44;;;;;;;3.03;2.73;;;12.80;99.90;;;;;;5051391;28;20449;-76
2023/06/05 02:17:13;;;;;;;4.10;2.77;;;12.80;99.90;;;;;;5050234;28;20456;-76
2023/06/05 02:19:40;;;;;;;2.80;2.60;;;12.80;99.90;;;;;;5044888;28;20483;-76
2023/06/05 02:22:06;;;;;;;3.40;3.10;;;12.80;99.90;;;;;;5050771;28;20522;-76
2023/06/05 02:24:33;;;;;;;9.17;2.97;;;12.70;99.90;;;;;;5044338;28;20452;-76
2023/06/05 02:27:00;;;;;;;3.83;3.43;;;12.70;99.90;;;;;;5051101;28;20484;-76
2023/06/05 02:29:27;;;;;;;5.33;3.70;;;12.70;99.90;;;;;;5050958;28;20457;-76
2023/06/05 02:31:54;;;;;;;3.73;2.80;;;12.70;99.90;;;;;;5050735;28;20473;-76
2023/06/05 02:34:21;;;;;;;5.30;2.83;;;12.60;99.90;;;;;;5051199;28;20461;-76
2023/06/05 02:36:49;;;;;;;3.00;2.70;;;12.60;99.90;;;;;;5044578;28;20449;-76
2023/06/05 02:39:16;;;;;;;5.13;3.17;;;12.60;99.90;;;;;;5044174;28;20464;-76
2023/06/05 02:41:44;;;;;;;5.00;3.13;;;12.60;99.90;;;;;;5055976;28;20475;-76
2023/06/05 02:44:11;;;;;;;4.13;3.20;;;12.50;99.90;;;;;;5053707;28;20496;-76
2023/06/05 02:46:37;;;;;;;4.67;3.10;;;12.50;99.90;;;;;;5050745;28;20591;-76
2023/06/05 02:49:05;;;;;;;4.77;4.03;;;12.50;99.90;;;;;;5050769;28;20452;-76
2023/06/05 02:51:32;;;;;;;7.47;3.33;;;12.40;99.90;;;;;;5058253;28;20503;-76
2023/06/05 02:53:58;;;;;;;4.50;3.60;;;12.40;99.90;;;;;;5051016;28;20476;-76
2023/06/05 02:56:26;;;;;;;8.40;3.80;;;12.40;99.90;;;;;;5050536;28;20494;-76
2023/06/05 02:58:53;;;;;;;5.70;4.03;;;12.40;99.90;;;;;;5046795;28;20557;-76
2023/06/05 03:01:21;;;;;;;5.13;3.67;;;12.30;99.90;;;;;;5050196;28;21002;-76
2023/06/05 03:03:48;;;;;;;7.60;4.17;;;12.30;99.90;;;;;;5050396;28;20505;-77
2023/06/05 03:06:17;;;;;;;5.50;4.60;;;12.30;99.90;;;;;;5048512;28;21270;-77
2023/06/05 03:08:44;;;;;;;4.70;4.20;;;12.20;99.90;;;;;;5046432;28;20934;-77
2023/06/05 03:11:11;;;;;;;6.83;4.60;;;12.20;99.90;;;;;;5044902;28;20456;-77
2023/06/05 03:13:38;;;;;;;5.20;4.00;;;12.20;99.90;;;;;;5050219;28;20460;-77
2023/06/05 03:16:05;;;;;;;5.03;4.43;;;12.20;99.90;;;;;;5050432;28;20506;-77
2023/06/05 03:18:32;;;;;;;7.10;4.40;;;12.20;99.90;;;;;;5052976;28;20463;-77
2023/06/05 03:20:58;;;;;;;5.67;4.57;;;12.20;99.90;;;;;;5055051;28;20445;-77
2023/06/05 03:23:28;;;;;;;9.70;4.60;;;12.10;99.90;;;;;;5044961;28;20481;-76
2023/06/05 03:25:55;;;;;;;4.67;4.27;;;12.10;99.90;;;;;;5058452;28;20503;-76
2023/06/05 03:28:23;;;;;;;6.87;4.20;;;12.10;99.90;;;;;;5058463;28;20458;-76
2023/06/05 03:30:50;;;;;;;5.60;3.73;;;12.10;99.90;;;;;;5044512;28;20892;-76
2023/06/05 03:33:18;;;;;;;4.70;3.70;;;12.10;99.90;;;;;;5046047;28;20575;-77
2023/06/05 03:35:46;;;;;;;6.83;3.90;;;12.10;99.90;;;;;;5045813;28;20937;-77
2023/06/05 03:38:13;;;;;;;5.33;3.47;;;12.10;99.90;;;;;;5050076;28;20531;-77
2023/06/05 03:40:41;;;;;;;4.50;3.53;;;12.00;99.90;;;;;;5049835;28;20786;-76
2023/06/05 03:43:08;;;;;;;5.00;3.30;;;12.00;99.90;;;;;;5058412;28;20467;-76
2023/06/05 03:45:36;;;;;;;4.77;3.40;;;12.00;99.90;;;;;;5037566;28;20488;-77
2023/06/05 03:48:03;;;;;;;6.10;3.30;;;12.00;99.90;;;;;;5046058;28;20457;-77
2023/06/05 03:50:31;;;;;;;3.30;3.00;;;12.00;99.90;;;;;;5053855;28;20494;-76
2023/06/05 03:53:02;;;;;;;7.00;2.97;;;12.00;99.90;;;;;;5052346;28;20480;-76
2023/06/05 03:55:40;;;;;;;4.70;3.20;;;12.00;99.90;;;;;;5053185;28;20940;-76
2023/06/05 03:58:13;;;;;;;7.10;3.60;;;12.00;99.90;;;;;;5053956;28;20837;-76
2023/06/05 04:00:40;;;;;;;3.13;2.80;;;12.00;99.90;;;;;;5046374;28;20469;-77
2023/06/05 04:03:08;;;;;;;3.70;3.10;;;12.00;99.90;;;;;;5053945;28;20508;-76
2023/06/05 04:05:35;;;;;;;11.63;3.10;;;12.00;99.90;;;;;;5061496;28;20591;-76
2023/06/05 04:08:01;;;;;;;4.60;2.50;;;12.00;99.90;;;;;;5051656;28;20452;-76
2023/06/05 04:10:28;;;;;;;5.13;2.83;;;12.00;99.90;;;;;;5061913;28;20455;-76
2023/06/05 04:12:55;;;;;;;3.40;3.10;;;12.10;99.90;;;;;;5059697;28;20467;-76
2023/06/05 04:15:23;;;;;;;5.60;3.10;;;12.00;99.90;;;;;;5047399;28;20506;-76
2023/06/05 04:17:50;;;;;;;4.07;3.00;;;12.00;99.90;;;;;;5053492;28;20505;-76
2023/06/05 04:20:16;;;;;;;3.77;3.27;;;12.10;99.90;;;;;;5048627;28;20449;-76
2023/06/05 04:22:44;;;;;;;4.40;2.87;;;12.10;99.90;;;;;;5044743;28;20827;-77
2023/06/05 04:25:12;;;;;;;3.80;3.27;;;12.20;99.90;;;;;;5053482;28;20552;-77
2023/06/05 04:27:39;;;;;;;9.43;2.80;;;12.20;99.90;;;;;;5053437;28;20491;-77
2023/06/05 04:30:07;;;;;;;3.30;3.00;;;12.20;99.90;;;;;;5053306;28;20940;-77
2023/06/05 04:32:38;;;;;;;6.27;3.00;;;12.20;99.90;;;;;;5050719;28;20472;-76
2023/06/05 04:35:06;;;;;;;3.17;2.87;;;12.20;99.90;;;;;;5056587;28;20508;-76
2023/06/05 04:37:32;;;;;;;3.07;2.77;;;12.30;99.90;;;;;;5045143;28;20453;-76
2023/06/05 04:39:59;;;;;;;3.10;2.80;;;12.30;99.90;;;;;;5052980;28;20506;-76
2023/06/05 04:42:26;;;;;;;9.70;2.80;;;12.40;99.90;;;;;;5061209;28;20474;-78
2023/06/05 04:44:58;;;;;;;4.30;2.90;;;12.40;99.90;;;;;;5041084;28;20449;-79
2023/06/05 04:47:24;;;;;;;2.90;2.70;;;12.50;99.90;;;;;;5052230;28;20480;-78
2023/06/05 04:49:53;;;;;;;3.47;3.03;;;12.60;99.90;;;;;;5045937;28;20461;-78
2023/06/05 04:52:21;;;;;;;3.50;3.20;;;12.70;99.90;;;;;;5061005;28;20558;-78
2023/06/05 04:54:48;;;;;;;5.40;2.87;;;12.70;99.90;;;;;;5061617;28;20460;-79
2023/06/05 04:57:16;;;;;;;3.70;3.27;;;12.80;99.90;;;;;;5060660;28;20941;-79
2023/06/05 04:59:42;;;;;;;5.73;3.30;;;12.80;99.90;;;;;;5044410;28;20873;-77
2023/06/05 05:02:09;;;;;;;7.90;3.20;;;12.90;99.90;;;;;;5048869;28;20477;-77
2023/06/05 05:04:36;;;;;;;3.20;2.70;;;13.10;99.90;;;;;;5050204;28;21092;-77
2023/06/05 05:07:05;;;;;;;3.50;2.80;;;13.10;99.90;;;;;;5046959;28;20488;-78
2023/06/05 05:09:32;;;;;;;3.30;3.00;;;13.20;99.90;;;;;;5050625;28;20461;-78
2023/06/05 05:11:59;;;;;;;9.27;3.20;;;13.20;99.90;;;;;;5050440;28;20535;-78
2023/06/05 05:14:26;;;;;;;3.07;2.77;;;13.30;99.90;;;;;;5051720;28;20949;-78
2023/06/05 05:16:53;;;;;;;3.07;2.87;;;13.40;99.90;;;;;;5052321;28;20989;-78
2023/06/05 05:19:21;;;;;;;3.03;2.83;;;13.50;99.90;;;;;;5060234;28;20709;-79
2023/06/05 05:21:48;;;;;;;7.87;2.97;;;13.60;99.90;;;;;;5052041;28;20998;-78
2023/06/05 05:24:16;;;;;;;2.70;2.50;;;13.70;99.90;;;;;;5051413;28;20516;-77
2023/06/05 05:26:43;;;;;;;3.53;2.80;;;13.80;99.90;;;;;;5049594;28;20487;-77
2023/06/05 05:29:09;;;;;;;5.63;2.80;;;13.90;99.90;;;;;;5056228;28;20444;-77
2023/06/05 05:31:36;;;;;;;5.73;3.27;;;13.90;99.90;;;;;;5069366;28;21057;-77
2023/06/05 05:34:03;;;;;;;3.23;3.00;;;14.00;99.90;;;;;;5056301;28;20446;-76
2023/06/05 05:36:30;;;;;;;4.47;3.07;;;14.10;99.90;;;;;;5067635;28;20452;-76
2023/06/05 05:38:56;;;;;;;4.67;2.80;;;14.20;99.90;;;;;;5066041;28;20495;-77
2023/06/05 05:41:25;;;;;;;2.93;2.60;;;14.30;99.90;;;;;;5059388;28;20452;-76
2023/06/05 05:43:52;;;;;;;4.33;2.90;;;14.40;99.90;;;;;;5060289;28;20591;-77
2023/06/05 05:46:18;;;;;;;5.30;2.90;;;14.60;99.90;;;;;;5052672;28;20826;-76
2023/06/05 05:48:45;;;;;;;5.33;3.30;;;14.80;99.90;;;;;;5051495;28;21012;-77
2023/06/05 05:51:12;;;;;;;5.43;3.10;;;14.90;99.90;;;;;;5052591;28;20452;-77
2023/06/05 05:53:38;;;;;;;8.10;2.73;;;15.00;99.90;;;;;;5054656;28;20493;-77
2023/06/05 05:56:05;;;;;;;15.93;2.87;;;15.10;99.90;;;;;;5047824;28;20450;-77
2023/06/05 05:58:33;;;;;;;4.70;3.50;;;15.20;99.90;;;;;;5069080;28;20843;-76
2023/06/05 06:01:00;;;;;;;4.67;2.93;;;15.30;99.90;;;;;;5057049;28;20446;-78
2023/06/05 06:03:27;;;;;;;7.53;3.40;;;15.50;99.90;;;;;;5048493;28;20596;-77
2023/06/05 06:05:54;;;;;;;5.60;3.17;;;15.70;99.90;;;;;;5052326;28;20543;-77
2023/06/05 06:08:21;;;;;;;17.17;3.40;;;15.80;99.90;;;;;;5058015;28;20945;-78
2023/06/05 06:10:47;;;;;;;4.67;3.37;;;16.00;99.90;;;;;;5055102;28;20456;-77
2023/06/05 06:13:14;;;;;;;3.50;3.20;;;16.20;99.90;;;;;;5042959;28;20560;-77
2023/06/05 06:15:42;;;;;;;6.73;2.90;;;16.40;99.90;;;;;;5053541;28;20861;-78
2023/06/05 06:18:09;;;;;;;5.50;2.97;;;16.50;99.90;;;;;;5064439;28;20506;-78
2023/06/05 06:20:36;;;;;;;4.40;3.00;;;16.60;99.90;;;;;;5059797;28;20991;-77
2023/06/05 06:23:03;;;;;;;15.40;3.50;;;16.70;99.90;;;;;;5057697;28;20522;-78
2023/06/05 06:25:31;;;;;;;4.07;2.93;;;16.90;99.90;;;;;;5061395;28;20916;-77
2023/06/05 06:27:58;;;;;;;7.23;3.00;;;17.00;99.90;;;;;;5059756;28;20496;-77
2023/06/05 06:30:25;;;;;;;5.10;2.70;;;17.10;99.90;;;;;;5059222;28;20461;-77
2023/06/05 06:32:57;;;;;;;7.00;2.97;;;17.20;99.90;;;;;;5054057;28;20503;-78
2023/06/05 06:35:24;;;;;;;4.23;2.80;;;17.30;99.90;;;;;;5057853;28;20983;-77
2023/06/05 06:37:54;;;;;;;7.27;3.17;;;17.40;99.90;;;;;;5048433;28;21023;-78
2023/06/05 06:40:21;;;;;;;6.10;2.97;;;17.40;99.90;;;;;;5051378;28;20447;-78
2023/06/05 06:42:47;;;;;;;3.30;2.87;;;17.50;99.90;;;;;;5066807;28;21038;-78
2023/06/05 06:45:14;;;;;;;6.80;3.20;;;17.60;99.90;;;;;;5051100;28;20531;-78
2023/06/05 06:47:42;;;;;;;7.67;3.00;;;17.80;99.90;;;;;;5048884;28;20462;-77
2023/06/05 06:50:10;;;;;;;5.13;3.17;;;18.00;99.90;;;;;;5046776;28;20940;-78
2023/06/05 06:52:37;;;;;;;7.80;3.30;;;18.20;99.90;;;;;;5058701;28;20524;-78
2023/06/05 06:55:04;;;;;;;3.30;3.00;;;18.30;99.90;;;;;;5071455;28;20485;-77
2023/06/05 06:57:31;;;;;;;3.23;2.93;;;18.40;99.90;;;;;;5045384;28;20461;-77
2023/06/05 06:59:57;;;;;;;7.17;2.77;;;18.40;99.90;;;;;;5050706;28;21010;-77
2023/06/05 07:02:25;;;;;;;5.90;3.00;;;18.50;99.90;;;;;;5047014;28;20986;-78
2023/06/05 07:04:53;;;;;;;5.10;2.70;;;18.70;99.90;;;;;;5058113;28;20435;-77
2023/06/05 07:07:22;;;;;;;5.27;3.07;;;18.90;99.90;;;;;;5051929;28;20480;-77
2023/06/05 07:09:50;;;;;;;11.63;3.33;;;19.10;99.90;;;;;;5050487;28;20427;-78
2023/06/05 07:12:19;;;;;;;5.20;3.20;;;19.30;99.90;;;;;;5050460;28;20454;-77
2023/06/05 07:14:46;;;;;;;11.50;3.10;;;19.60;99.90;;;;;;5054605;28;20422;-77
2023/06/05 07:17:13;;;;;;;6.93;3.17;;;19.70;99.90;;;;;;5048613;28;20424;-78
2023/06/05 07:19:40;;;;;;;6.50;3.63;;;19.80;99.90;;;;;;5054090;28;20605;-77
2023/06/05 07:22:07;;;;;;;4.07;2.80;;;19.80;99.90;;;;;;5049149;28;20508;-77
2023/06/05 07:24:38;;;;;;;4.40;3.43;;;20.00;99.90;;;;;;5049901;28;20707;-77
2023/06/05 07:27:06;;;;;;;8.90;3.47;;;20.10;99.90;;;;;;5032495;28;20452;-77
2023/06/05 07:29:32;;;;;;;8.27;3.00;;;20.30;99.90;;;;;;5058738;28;20521;-77
2023/06/05 07:31:59;;;;;;;4.50;2.97;;;20.40;99.90;;;;;;5056501;28;20476;-73
2023/06/05 07:34:26;;;;;;;5.40;3.03;;;20.60;99.90;;;;;;5045351;28;20948;-73
2023/06/05 07:36:55;;;;;;;3.13;2.83;;;20.80;99.90;;;;;;5045931;28;20424;-75
2023/06/05 07:39:22;;;;;;;5.83;3.10;;;21.00;99.90;;;;;;5046467;28;20460;-73
2023/06/05 07:41:50;;;;;;;5.23;3.17;;;21.00;99.90;;;;;;5049682;28;20451;-74
2023/06/05 07:44:19;;;;;;;7.53;3.23;;;21.10;99.90;;;;;;5043051;28;20514;-73
2023/06/05 07:46:48;;;;;;;9.20;3.80;;;21.10;99.90;;;;;;5041912;28;20459;-73
2023/06/05 07:49:15;;;;;;;11.43;3.50;;;21.10;99.90;;;;;;5048659;28;20566;-73
2023/06/05 07:51:43;;;;;;;14.83;3.87;;;21.30;99.90;;;;;;5049721;28;20447;-74
2023/06/05 07:54:11;;;;;;;9.33;4.23;;;21.30;99.90;;;;;;5049769;28;20557;-74
2023/06/05 07:56:38;;;;;;;4.80;3.70;;;21.80;99.90;;;;;;5048041;28;20618;-76
2023/06/05 07:59:07;;;;;;;5.73;3.37;;;22.00;99.90;;;;;;5049013;28;20916;-76
2023/06/05 08:01:36;;;;;;;7.60;3.10;;;22.20;99.90;;;;;;5048587;28;21020;-76
2023/06/05 08:04:03;;;;;;;12.20;3.53;;;22.40;99.90;;;;;;5041824;28;20452;-75
2023/06/05 08:06:30;;;;;;;3.87;2.80;;;22.50;99.90;;;;;;5048764;28;20518;-75
2023/06/05 08:08:57;;;;;;;4.70;3.03;;;22.80;99.90;;;;;;5050503;28;20495;-75
2023/06/05 08:11:23;;;;;;;8.83;3.10;;;23.00;99.90;;;;;;5048937;28;20449;-73
2023/06/05 08:13:50;;;;;;;5.53;3.30;;;23.10;99.90;;;;;;5041069;28;20456;-75
2023/06/05 08:16:18;;;;;;;6.33;3.90;;;23.10;99.90;;;;;;5042646;28;20449;-76
2023/06/05 08:18:45;;;;;;;4.20;2.90;;;23.00;99.90;;;;;;5049233;28;20503;-74
2023/06/05 08:21:12;;;;;;;5.57;2.90;;;23.10;99.90;;;;;;5048420;28;20964;-75
2023/06/05 08:23:38;;;;;;;4.03;2.80;;;23.30;99.90;;;;;;5048340;28;20928;-75
2023/06/05 08:26:10;;;;;;;3.20;2.87;;;23.50;99.90;;;;;;5049176;28;20506;-74
2023/06/05 08:28:38;;;;;;;7.63;3.10;;;23.70;99.90;;;;;;5059904;28;20890;-78
2023/06/05 08:31:05;;;;;;;8.53;2.90;;;23.90;99.90;;;;;;5053955;28;20486;-77
2023/06/05 08:33:33;;;;;;;5.70;2.70;;;24.00;99.90;;;;;;5049290;28;20552;-78
2023/06/05 08:36:01;;;;;;;6.30;2.93;;;24.10;99.90;;;;;;5051313;28;20490;-77
2023/06/05 08:38:27;;;;;;;5.57;2.77;;;24.10;99.90;;;;;;5052815;28;20452;-77
2023/06/05 08:41:00;;;;;;;4.00;2.60;;;24.20;99.90;;;;;;5051867;28;20452;-76
2023/06/05 08:43:27;;;;;;;6.30;3.20;;;24.30;99.90;;;;;;5052221;28;20486;-74
2023/06/05 08:45:56;;;;;;;7.10;3.30;;;24.30;99.90;;;;;;5052569;28;20445;-75
2023/06/05 08:48:24;;;;;;;5.20;3.17;;;24.30;99.90;;;;;;5060186;28;20491;-75
2023/06/05 08:50:54;;;;;;;7.37;3.27;;;24.50;99.90;;;;;;5055559;28;20673;-75
2023/06/05 08:53:24;;;;;;;12.90;3.30;;;24.60;99.90;;;;;;5056979;28;20672;-80
2023/06/05 08:55:54;;;;;;;11.30;3.30;;;24.80;99.90;;;;;;5045169;28;20993;-78
2023/06/05 08:58:21;;;;;;;6.50;3.07;;;25.10;99.90;;;;;;5052200;28;20864;-78
2023/06/05 09:00:49;;;;;;;5.20;2.80;;;25.30;99.90;;;;;;5051918;28;20452;-78
2023/06/05 09:03:18;;;;;;;6.73;3.50;;;25.50;99.90;;;;;;5048959;28;20843;-77
2023/06/05 09:05:44;;;;;;;7.03;3.03;;;25.60;99.90;;;;;;5052019;28;20583;-78
2023/06/05 09:08:13;;;;;;;6.30;2.90;;;25.80;99.90;;;;;;5049034;28;20568;-76
2023/06/05 09:10:39;;;;;;;3.10;2.80;;;26.00;99.90;;;;;;5047057;28;20453;-74
2023/06/05 09:13:06;;;;;;;4.43;2.70;;;26.10;99.90;;;;;;5059696;28;20480;-74
2023/06/05 09:15:34;;;;;;;5.70;2.80;;;26.20;99.90;;;;;;5052393;28;20460;-74
2023/06/05 09:18:08;;;;;;;3.67;2.47;;;26.40;99.90;;;;;;5052327;28;20954;-74
2023/06/05 09:20:36;;;;;;;10.37;2.80;;;26.60;99.90;;;;;;5044812;28;20456;-75
2023/06/05 09:23:03;;;;;;;6.73;2.73;;;26.70;99.60;;;;;;5052162;28;20472;-74
2023/06/05 09:25:48;;;;;;;6.20;2.83;;;26.70;99.90;;;;;;5051575;28;20448;-73
2023/06/05 09:28:16;;;;;;;9.00;2.90;;;26.60;99.90;;;;;;5052542;28;20519;-74
2023/06/05 09:30:57;;;;;;;6.00;2.67;;;26.70;99.10;;;;;;5046469;28;20456;-73
2023/06/05 09:33:24;;;;;;;7.47;2.93;;;26.90;99.10;;;;;;5051782;28;20543;-72
2023/06/05 09:36:07;;;;;;;4.63;2.67;;;27.00;98.20;;;;;;5061387;28;20444;-73
2023/06/05 09:38:35;;;;;;;4.17;2.50;;;27.10;98.70;;;;;;5042683;28;20494;-73
2023/06/05 09:41:04;;;;;;;2.30;2.10;;;27.30;94.40;;;;;;5044308;28;20472;-73
2023/06/05 09:43:31;;;;;;;3.53;2.37;;;27.10;95.90;;;;;;5051856;28;20904;-73
2023/06/05 09:45:58;;;;;;;7.90;2.33;;;26.90;92.90;;;;;;5051742;28;20487;-73
2023/06/05 09:48:25;;;;;;;3.07;2.13;;;27.10;94.40;;;;;;5051608;28;21019;-73
2023/06/05 09:50:52;;;;;;;2.77;2.40;;;27.30;93.90;;;;;;5037616;28;21087;-73
2023/06/05 09:53:21;;;;;;;4.23;2.80;;;27.40;92.90;;;;;;5051747;28;20465;-73
2023/06/05 09:55:48;;;;;;;4.27;2.40;;;27.50;92.70;;;;;;5051516;28;20983;-73
2023/06/05 09:58:16;;;;;;;2.60;2.40;;;27.70;93.20;;;;;;5054060;28;20444;-73
2023/06/05 10:00:44;;;;;;;7.40;2.50;;;27.70;92.00;;;;;;5050415;28;20510;-73
2023/06/05 10:03:15;;;;;;;2.50;2.30;;;27.80;93.40;;;;;;5045325;28;20476;-73
2023/06/05 10:05:44;;;;;;;5.07;2.50;;;28.00;90.80;;;;;;5050580;28;20994;-73
2023/06/05 10:08:12;;;;;;;2.63;2.40;;;28.00;91.40;;;;;;5053080;28;20508;-73
2023/06/05 10:10:40;;;;;;;2.77;2.57;;;28.20;92.20;;;;;;5048988;28;20515;-73
2023/06/05 10:13:07;;;;;;;7.57;2.70;;;28.50;92.40;;;;;;5051003;28;20476;-73
2023/06/05 10:15:37;;;;;;;7.13;2.40;;;28.50;91.60;;;;;;5044242;28;20461;-74
2023/06/05 10:18:05;;;;;;;9.90;2.53;;;28.60;90.80;;;;;;5045969;28;20898;-73
2023/06/05 10:20:32;;;;;;;3.80;2.70;;;28.50;91.50;;;;;;5050910;28;20518;-73
2023/06/05 10:22:59;;;;;;;2.50;2.17;;;28.80;92.00;;;;;;5051055;28;20506;-73
2023/06/05 10:25:26;;;;;;;2.57;2.37;;;28.90;90.00;;;;;;5047530;28;20464;-73
2023/06/05 10:28:06;;;;;;;5.63;2.30;;;28.80;88.40;;;;;;5050594;28;20545;-73
2023/06/05 10:31:02;;;;;;;2.20;2.00;;;28.70;88.70;;;;;;5050806;28;20518;-72
2023/06/05 10:33:45;;;;;;;3.03;2.67;;;28.80;90.40;;;;;;5050582;28;20472;-73
2023/06/05 10:36:29;;;;;;;3.33;2.30;;;29.00;89.30;;;;;;5041952;28;20498;-73
2023/06/05 10:38:56;;;;;;;4.80;2.77;;;29.20;88.20;;;;;;5041236;28;20445;-72
2023/06/05 10:41:23;;;;;;;2.57;2.37;;;29.30;88.40;;;;;;5038167;28;20507;-72
2023/06/05 10:43:52;;;;;;;8.07;2.33;;;29.40;85.60;;;;;;5050024;28;20456;-72
2023/06/05 10:46:34;;;;;;;4.33;2.30;;;29.40;87.40;;;;;;5048491;28;20507;-72
2023/06/05 10:49:12;;;;;;;4.67;2.43;;;29.50;85.10;;;;;;5047480;28;20488;-72
2023/06/05 10:51:42;;;;;;;3.13;2.47;;;29.40;82.90;;;;;;5052398;28;21002;-72
2023/06/05 10:54:09;;;;;;;6.50;2.37;;;29.30;81.60;;;;;;5050888;28;20947;-72
2023/06/05 10:57:06;;;;;;;2.87;2.57;;;29.50;85.30;;;;;;5049231;28;20456;-72
2023/06/05 10:59:34;;;;;;;5.80;2.60;;;29.90;85.00;;;;;;5046690;28;20459;-70
2023/06/05 11:02:27;;;;;;;2.67;2.20;;;30.00;82.50;;;;;;5050415;28;20483;-70
2023/06/05 11:05:08;;;;;;;2.80;2.37;;;29.90;81.40;;;;;;5047154;28;20457;-71
2023/06/05 11:07:35;;;;;;;2.90;2.40;;;29.80;79.90;;;;;;5046653;28;20538;-71
2023/06/05 11:10:17;;;;;;;5.40;2.50;;;29.80;80.20;;;;;;5049519;28;20458;-71
2023/06/05 11:13:00;;;;;;;3.30;2.00;;;29.80;76.20;;;;;;5047027;28;20996;-71
2023/06/05 11:15:43;;;;;;;7.03;2.70;;;29.40;76.80;;;;;;5054188;28;20877;-71
2023/06/05 11:18:35;;;;;;;9.30;3.23;;;29.20;80.30;;;;;;5047245;28;20440;-72
2023/06/05 11:21:02;;;;;;;2.47;2.20;;;29.20;76.90;;;;;;5041582;28;20456;-71
2023/06/05 11:23:29;;;;;;;4.93;2.80;;;29.50;78.70;;;;;;5046729;28;20488;-71
2023/06/05 11:26:14;;;;;;;4.33;2.60;;;29.70;80.50;;;;;;5037222;28;20544;-71
2023/06/05 11:28:41;;;;;;;8.30;3.07;;;29.90;78.30;;;;;;5047565;28;20557;-71
2023/06/05 11:31:08;;;;;;;5.23;2.40;;;29.60;76.80;;;;;;5050053;28;20456;-70
2023/06/05 11:33:36;;;;;;;5.53;2.17;;;29.70;77.70;;;;;;5049334;28;20487;-71
2023/06/05 11:36:05;;;;;;;2.40;2.17;;;29.80;75.60;;;;;;5047962;28;20461;-71
2023/06/05 11:38:32;;;;;;;4.70;2.30;;;29.70;76.20;;;;;;5049999;28;20444;-71
2023/06/05 11:40:59;;;;;;;6.00;2.40;;;29.60;75.50;;;;;;5045979;28;20824;-71
2023/06/05 11:43:26;;;;;;;4.13;2.30;;;29.70;77.10;;;;;;5047883;28;20559;-71
2023/06/05 11:45:54;;;;;;;4.33;3.17;;;30.00;77.60;;;;;;5050151;28;20464;-70
2023/06/05 11:48:21;;;;;;;2.97;2.67;;;30.10;76.70;;;;;;5049692;28;20659;-70
2023/06/05 11:50:58;;;;;;;6.70;2.40;;;30.00;72.90;;;;;;5050009;28;20555;-70
2023/06/05 11:53:26;;;;;;;4.73;2.27;;;29.80;73.30;;;;;;5050080;28;20468;-70
2023/06/05 11:56:06;;;;;;;3.63;2.47;;;29.20;72.30;;;;;;5049071;28;20457;-70
2023/06/05 11:58:36;;;;;;;3.20;2.47;;;28.70;75.40;;;;;;5046434;28;20444;-70
2023/06/05 12:01:07;;;;;;;3.00;2.70;;;28.70;74.70;;;;;;5042318;28;20452;-70
2023/06/05 12:03:35;;;;;;;5.80;3.17;;;28.40;74.10;;;;;;5047436;28;20874;-70
2023/06/05 12:06:04;;;;;;;4.00;2.90;;;28.50;77.30;;;;;;5043879;28;20488;-69
2023/06/05 12:08:33;;;;;;;3.87;2.40;;;28.80;77.90;;;;;;5055089;28;20483;-70
2023/06/05 12:11:00;;;;;;;3.07;2.53;;;29.30;76.90;;;;;;5048775;28;20460;-71
2023/06/05 12:13:48;;;;;;;3.50;2.47;;;29.60;74.00;;;;;;5049977;28;20484;-72
2023/06/05 12:16:15;;;;;;;6.00;2.40;;;29.50;75.00;;;;;;5053706;28;20470;-71
2023/06/05 12:18:42;;;;;;;5.50;2.60;;;29.50;74.30;;;;;;5053202;28;20448;-71
2023/06/05 12:21:20;;;;;;;4.77;2.13;;;29.60;73.50;;;;;;5053244;28;20584;-72
2023/06/05 12:23:47;;;;;;;2.30;2.10;;;29.80;73.00;;;;;;5048749;28;20536;-71
2023/06/05 12:26:15;;;;;;;5.13;2.27;;;30.20;76.90;;;;;;5042574;28;20490;-71
2023/06/05 12:28:43;;;;;;;2.37;2.17;;;30.40;74.60;;;;;;5045892;28;21054;-71
2023/06/05 12:31:10;;;;;;;2.90;2.53;;;30.30;76.20;;;;;;5053257;28;20954;-71
2023/06/05 12:33:46;;;;;;;4.20;2.23;;;30.40;73.00;;;;;;5053291;28;20452;-71
2023/06/05 12:36:14;;;;;;;7.27;3.17;;;30.60;74.10;;;;;;5052782;28;20490;-71
2023/06/05 12:38:42;;;;;;;4.23;2.50;;;30.70;73.00;;;;;;5053011;28;20452;-71
2023/06/05 12:41:09;;;;;;;2.53;2.33;;;30.50;70.60;;;;;;5046924;28;21047;-72
2023/06/05 12:43:36;;;;;;;4.80;2.80;;;30.10;72.00;;;;;;5040678;28;20468;-71
2023/06/05 12:46:03;;;;;;;5.50;2.63;;;29.90;72.70;;;;;;5047816;28;20448;-71
2023/06/05 12:48:30;;;;;;;3.03;2.30;;;29.80;71.00;;;;;;5053180;28;20480;-71
2023/06/05 12:50:57;;;;;;;5.93;2.43;;;29.70;71.00;;;;;;5046444;28;20462;-72
2023/06/05 12:53:25;;;;;;;7.23;2.60;;;29.40;70.40;;;;;;5052896;28;20478;-71